Time,TemperatureF,DewpointF,PressureIn,WindDirection,WindDirectionDegrees,WindSpeedMPH,WindSpeedGustMPH,Humidity,HourlyPrecipIn,Conditions,Clouds,dailyrainin,SoftwareType,DateUTC
2013-10-14 00:23:00,70.0,67.0,30.15,SW,217,0.0,2.0,90,0.00,,,0.00,,2013-10-14 05:23:00,
2013-10-14 00:52:00,70.0,67.0,30.14,West,270,1.0,4.0,91,0.00,,,0.00,,2013-10-14 05:52:00,
2013-10-14 01:22:00,69.0,67.0,30.13,WSW,248,0.0,4.0,92,0.00,,,0.00,,2013-10-14 06:22:00,
2013-10-14 01:52:00,69.0,67.0,30.13,WSW,256,0.0,4.0,92,0.00,,,0.00,,2013-10-14 06:52:00,
2013-10-14 02:22:00,69.0,67.0,30.14,WSW,256,0.0,4.0,92,0.00,,,0.00,,2013-10-14 07:22:00,
2013-10-14 02:42:00,69.0,67.0,30.14,West,281,1.0,5.0,92,0.00,,,0.00,,2013-10-14 07:42:00,
2013-10-14 02:52:00,68.0,66.0,30.14,WSW,246,2.0,6.0,93,0.00,,,0.00,,2013-10-14 07:52:00,
2013-10-14 03:22:00,68.0,66.0,30.13,WSW,252,0.0,4.0,94,0.02,,,0.02,,2013-10-14 08:22:00,
2013-10-14 03:52:00,68.0,66.0,30.12,West,280,1.0,6.0,94,0.03,,,0.03,,2013-10-14 08:52:00,
2013-10-14 04:22:00,68.0,66.0,30.10,West,267,1.0,6.0,94,0.03,,,0.05,,2013-10-14 09:22:00,
2013-10-14 04:43:00,68.0,66.0,30.09,WSW,248,0.0,4.0,94,0.02,,,0.05,,2013-10-14 09:43:00,
2013-10-14 04:53:00,68.0,67.0,30.09,SSE,158,0.0,4.0,95,0.02,,,0.05,,2013-10-14 09:53:00,
2013-10-14 05:23:00,68.0,67.0,30.09,WNW,290,0.0,6.0,95,0.02,,,0.07,,2013-10-14 10:23:00,
2013-10-14 05:53:00,68.0,67.0,30.08,WSW,251,0.0,5.0,95,0.02,,,0.08,,2013-10-14 10:53:00,
2013-10-14 06:22:00,68.0,67.0,30.08,South,170,0.0,4.0,95,0.02,,,0.09,,2013-10-14 11:22:00,
2013-10-14 06:42:00,68.0,67.0,30.08,West,280,0.0,4.0,95,0.02,,,0.10,,2013-10-14 11:42:00,
2013-10-14 06:52:00,68.0,67.0,30.08,WSW,248,0.0,3.0,95,0.03,,,0.12,,2013-10-14 11:52:00,
2013-10-14 07:22:00,68.0,67.0,30.08,East,84,0.0,2.0,95,0.16,,,0.25,,2013-10-14 12:22:00,
2013-10-14 07:42:00,68.0,67.0,30.08,West,265,0.0,1.0,95,0.20,,,0.30,,2013-10-14 12:42:00,
2013-10-14 07:52:00,68.0,67.0,30.08,WNW,299,0.0,3.0,95,0.19,,,0.31,,2013-10-14 12:52:00,
2013-10-14 08:11:00,68.0,67.0,30.08,NW,304,0.0,2.0,95,0.14,,,0.34,,2013-10-14 13:11:00,
2013-10-14 08:21:00,68.0,67.0,30.08,WSW,257,0.0,2.0,95,0.20,,,0.45,,2013-10-14 13:21:00,
2013-10-14 08:42:00,68.0,67.0,30.08,West,267,0.0,4.0,95,0.18,,,0.48,,2013-10-14 13:42:00,
2013-10-14 08:52:00,68.0,67.0,30.07,West,274,0.0,3.0,96,0.20,,,0.51,,2013-10-14 13:52:00,
2013-10-14 09:11:00,68.0,67.0,30.08,SW,228,0.0,4.0,96,0.18,,,0.52,,2013-10-14 14:11:00,
2013-10-14 09:22:00,68.0,67.0,30.08,WSW,256,0.0,8.0,96,0.08,,,0.53,,2013-10-14 14:22:00,
2013-10-14 09:42:00,69.0,68.0,30.08,West,281,0.0,8.0,96,0.05,,,0.53,,2013-10-14 14:42:00,
2013-10-14 09:52:00,69.0,68.0,30.07,WSW,250,0.0,6.0,96,0.03,,,0.54,,2013-10-14 14:52:00,
2013-10-14 10:21:00,69.0,68.0,30.07,SSW,200,0.0,3.0,96,0.01,,,0.54,,2013-10-14 15:21:00,
2013-10-14 10:54:00,69.0,68.0,30.07,West,264,1.0,10.0,96,0.01,,,0.55,,2013-10-14 15:54:00,
2013-10-14 11:23:00,69.0,68.0,30.06,ENE,72,0.0,4.0,96,0.01,,,0.55,,2013-10-14 16:23:00,
2013-10-14 11:53:00,70.0,69.0,30.06,South,173,0.0,4.0,96,0.01,,,0.56,,2013-10-14 16:53:00,
2013-10-14 12:22:00,70.0,68.0,30.05,East,87,0.0,7.0,95,0.01,,,0.56,,2013-10-14 17:22:00,
2013-10-14 12:52:00,70.0,69.0,30.04,ENE,73,0.0,3.0,96,0.07,,,0.63,,2013-10-14 17:52:00,
2013-10-14 13:22:00,71.0,70.0,30.02,SSE,160,0.0,1.0,96,0.10,,,0.66,,2013-10-14 18:22:00,
2013-10-14 13:52:00,71.0,70.0,30.00,West,267,0.0,2.0,96,0.04,,,0.67,,2013-10-14 18:52:00,
2013-10-14 14:21:00,71.0,69.0,29.98,NNE,27,0.0,5.0,95,0.02,,,0.68,,2013-10-14 19:21:00,
2013-10-14 14:52:00,71.0,70.0,29.96,North,349,0.0,5.0,96,0.03,,,0.70,,2013-10-14 19:52:00,
2013-10-14 15:22:00,71.0,70.0,29.96,ENE,70,0.0,5.0,96,0.04,,,0.72,,2013-10-14 20:22:00,
2013-10-14 15:52:00,71.0,69.0,29.96,WNW,291,1.0,5.0,95,0.13,,,0.83,,2013-10-14 20:52:00,
2013-10-14 16:22:00,70.0,68.0,29.95,WNW,298,0.0,9.0,95,0.20,,,0.93,,2013-10-14 21:22:00,
2013-10-14 16:55:00,70.0,68.0,29.94,NE,47,1.0,7.0,95,0.09,,,0.93,,2013-10-14 21:55:00,
2013-10-14 17:24:00,70.0,68.0,29.93,North,4,0.0,5.0,95,0.00,,,0.93,,2013-10-14 22:24:00,
2013-10-14 17:54:00,71.0,69.0,29.93,WNW,290,0.0,4.0,95,0.00,,,0.93,,2013-10-14 22:54:00,
2013-10-14 18:22:00,71.0,69.0,29.94,NE,43,0.0,2.0,95,0.00,,,0.93,,2013-10-14 23:22:00,
2013-10-14 18:52:00,71.0,69.0,29.95,SW,236,0.0,2.0,95,0.00,,,0.93,,2013-10-14 23:52:00,
2013-10-14 19:22:00,71.0,69.0,29.95,East,92,0.0,1.0,95,0.00,,,0.93,,2013-10-15 00:22:00,
2013-10-14 19:52:00,71.0,69.0,29.95,ENE,72,0.0,2.0,95,0.00,,,0.93,,2013-10-15 00:52:00,
2013-10-14 20:22:00,71.0,69.0,29.95,South,191,0.0,2.0,95,0.00,,,0.93,,2013-10-15 01:22:00,
2013-10-14 20:52:00,71.0,69.0,29.96,NNW,335,0.0,2.0,95,0.00,,,0.93,,2013-10-15 01:52:00,
2013-10-14 21:22:00,71.0,69.0,29.94,SW,232,0.0,4.0,95,0.00,,,0.93,,2013-10-15 02:22:00,
2013-10-14 21:52:00,71.0,69.0,29.95,NW,318,0.0,3.0,95,0.00,,,0.93,,2013-10-15 02:52:00,
2013-10-14 22:23:00,70.0,68.0,29.96,ENE,76,0.0,3.0,95,0.00,,,0.93,,2013-10-15 03:23:00,
2013-10-14 22:55:00,70.0,68.0,29.96,West,264,0.0,5.0,95,0.00,,,0.93,,2013-10-15 03:55:00,
2013-10-14 23:14:00,70.0,68.0,29.96,SW,218,0.0,2.0,95,0.00,,,0.93,,2013-10-15 04:14:00,
2013-10-14 23:24:00,71.0,69.0,29.96,NE,51,0.0,4.0,95,0.00,,,0.93,,2013-10-15 04:24:00,
2013-10-14 23:54:00,71.0,69.0,29.95,West,269,1.0,5.0,95,0.00,,,0.93,,2013-10-15 04:54:00,